sensor_id;sensor_type;location;lat;lon;timestamp;temperature;humidity
22968;DHT22;11650;48.106;-1.696;2024-03-17T00:02:18;13.20;99.90
22968;DHT22;11650;48.106;-1.696;2024-03-17T00:04:46;13.20;99.90
22968;DHT22;11650;48.106;-1.696;2024-03-17T00:07:12;13.20;99.90
22968;DHT22;11650;48.106;-1.696;2024-03-17T00:09:38;13.20;99.90
22968;DHT22;11650;48.106;-1.696;2024-03-17T00:12:04;13.10;99.90
22968;DHT22;11650;48.106;-1.696;2024-03-17T00:14:31;13.20;99.90
22968;DHT22;11650;48.106;-1.696;2024-03-17T00:16:56;13.20;99.90
22968;DHT22;11650;48.106;-1.696;2024-03-17T00:19:23;13.20;99.90
22968;DHT22;11650;48.106;-1.696;2024-03-17T00:21:49;13.20;99.90
22968;DHT22;11650;48.106;-1.696;2024-03-17T00:24:19;13.20;99.90
22968;DHT22;11650;48.106;-1.696;2024-03-17T00:26:46;13.10;99.90
22968;DHT22;11650;48.106;-1.696;2024-03-17T00:29:12;13.10;99.90
22968;DHT22;11650;48.106;-1.696;2024-03-17T00:31:37;13.10;99.90
22968;DHT22;11650;48.106;-1.696;2024-03-17T00:34:03;13.10;99.90
22968;DHT22;11650;48.106;-1.696;2024-03-17T00:36:29;13.10;99.90
22968;DHT22;11650;48.106;-1.696;2024-03-17T00:38:55;13.10;99.90
22968;DHT22;11650;48.106;-1.696;2024-03-17T00:41:22;13.10;99.90
22968;DHT22;11650;48.106;-1.696;2024-03-17T00:43:49;13.10;99.90
22968;DHT22;11650;48.106;-1.696;2024-03-17T00:46:15;13.10;99.90
22968;DHT22;11650;48.106;-1.696;2024-03-17T00:48:41;13.10;99.90
22968;DHT22;11650;48.106;-1.696;2024-03-17T00:51:06;13.10;99.90
22968;DHT22;11650;48.106;-1.696;2024-03-17T00:53:32;13.10;99.90
22968;DHT22;11650;48.106;-1.696;2024-03-17T00:55:58;13.10;99.90
22968;DHT22;11650;48.106;-1.696;2024-03-17T00:58:24;13.10;99.90
22968;DHT22;11650;48.106;-1.696;2024-03-17T01:00:50;13.10;99.90
22968;DHT22;11650;48.106;-1.696;2024-03-17T01:03:19;13.10;99.90
22968;DHT22;11650;48.106;-1.696;2024-03-17T01:05:45;13.00;99.90
22968;DHT22;11650;48.106;-1.696;2024-03-17T01:08:13;13.00;99.90
22968;DHT22;11650;48.106;-1.696;2024-03-17T01:10:44;13.10;99.90
22968;DHT22;11650;48.106;-1.696;2024-03-17T01:13:10;13.00;99.90
22968;DHT22;11650;48.106;-1.696;2024-03-17T01:15:37;13.00;99.90
22968;DHT22;11650;48.106;-1.696;2024-03-17T01:18:06;13.10;99.90
22968;DHT22;11650;48.106;-1.696;2024-03-17T01:20:33;13.10;99.90
22968;DHT22;11650;48.106;-1.696;2024-03-17T01:22:59;13.10;99.90
22968;DHT22;11650;48.106;-1.696;2024-03-17T01:25:25;13.10;99.90
22968;DHT22;11650;48.106;-1.696;2024-03-17T01:27:52;13.10;99.90
22968;DHT22;11650;48.106;-1.696;2024-03-17T01:30:18;13.10;99.90
22968;DHT22;11650;48.106;-1.696;2024-03-17T01:32:45;13.10;99.90
22968;DHT22;11650;48.106;-1.696;2024-03-17T01:35:11;13.10;99.90
22968;DHT22;11650;48.106;-1.696;2024-03-17T01:37:38;13.20;99.90
22968;DHT22;11650;48.106;-1.696;2024-03-17T01:40:04;13.10;99.90
22968;DHT22;11650;48.106;-1.696;2024-03-17T01:42:38;13.10;99.90
22968;DHT22;11650;48.106;-1.696;2024-03-17T01:45:29;13.10;99.90
22968;DHT22;11650;48.106;-1.696;2024-03-17T01:47:56;13.00;99.90
22968;DHT22;11650;48.106;-1.696;2024-03-17T01:50:35;13.10;99.90
22968;DHT22;11650;48.106;-1.696;2024-03-17T01:53:09;13.00;99.90
22968;DHT22;11650;48.106;-1.696;2024-03-17T01:55:40;13.10;99.90
22968;DHT22;11650;48.106;-1.696;2024-03-17T01:58:08;13.10;99.90
22968;DHT22;11650;48.106;-1.696;2024-03-17T02:00:36;13.00;99.90
22968;DHT22;11650;48.106;-1.696;2024-03-17T02:03:09;13.00;99.90
22968;DHT22;11650;48.106;-1.696;2024-03-17T02:05:35;13.10;99.90
22968;DHT22;11650;48.106;-1.696;2024-03-17T02:08:06;13.00;99.90
22968;DHT22;11650;48.106;-1.696;2024-03-17T02:10:32;13.00;99.90
22968;DHT22;11650;48.106;-1.696;2024-03-17T02:12:59;13.00;99.90
22968;DHT22;11650;48.106;-1.696;2024-03-17T02:15:25;13.00;99.90
22968;DHT22;11650;48.106;-1.696;2024-03-17T02:17:51;13.00;99.90
22968;DHT22;11650;48.106;-1.696;2024-03-17T02:20:16;13.00;99.90
22968;DHT22;11650;48.106;-1.696;2024-03-17T02:22:43;13.00;99.90
22968;DHT22;11650;48.106;-1.696;2024-03-17T02:25:09;13.00;99.90
22968;DHT22;11650;48.106;-1.696;2024-03-17T02:27:38;13.00;99.90
22968;DHT22;11650;48.106;-1.696;2024-03-17T02:30:04;13.00;99.90
22968;DHT22;11650;48.106;-1.696;2024-03-17T02:32:33;13.00;99.90
22968;DHT22;11650;48.106;-1.696;2024-03-17T02:34:59;13.00;99.90
22968;DHT22;11650;48.106;-1.696;2024-03-17T02:37:25;13.00;99.90
22968;DHT22;11650;48.106;-1.696;2024-03-17T02:39:51;13.00;99.90
22968;DHT22;11650;48.106;-1.696;2024-03-17T02:42:16;13.00;99.90
22968;DHT22;11650;48.106;-1.696;2024-03-17T02:44:42;12.90;99.90
22968;DHT22;11650;48.106;-1.696;2024-03-17T02:47:08;12.90;99.90
22968;DHT22;11650;48.106;-1.696;2024-03-17T02:49:36;12.90;99.90
22968;DHT22;11650;48.106;-1.696;2024-03-17T02:52:07;12.90;99.90
22968;DHT22;11650;48.106;-1.696;2024-03-17T02:54:35;12.90;99.90
22968;DHT22;11650;48.106;-1.696;2024-03-17T02:57:02;12.90;99.90
22968;DHT22;11650;48.106;-1.696;2024-03-17T02:59:28;12.90;99.90
22968;DHT22;11650;48.106;-1.696;2024-03-17T03:01:54;12.90;99.90
22968;DHT22;11650;48.106;-1.696;2024-03-17T03:04:20;12.80;99.90
22968;DHT22;11650;48.106;-1.696;2024-03-17T03:06:45;12.90;99.90
22968;DHT22;11650;48.106;-1.696;2024-03-17T03:09:11;12.90;99.90
22968;DHT22;11650;48.106;-1.696;2024-03-17T03:11:45;12.80;99.90
22968;DHT22;11650;48.106;-1.696;2024-03-17T03:14:12;12.80;99.90
22968;DHT22;11650;48.106;-1.696;2024-03-17T03:16:38;12.80;99.90
22968;DHT22;11650;48.106;-1.696;2024-03-17T03:19:04;12.80;99.90
22968;DHT22;11650;48.106;-1.696;2024-03-17T03:21:31;12.80;99.90
22968;DHT22;11650;48.106;-1.696;2024-03-17T03:23:57;12.80;99.90
22968;DHT22;11650;48.106;-1.696;2024-03-17T03:26:22;12.80;99.90
22968;DHT22;11650;48.106;-1.696;2024-03-17T03:28:49;12.80;99.90
22968;DHT22;11650;48.106;-1.696;2024-03-17T03:31:15;12.80;99.90
22968;DHT22;11650;48.106;-1.696;2024-03-17T03:33:41;12.80;99.90
22968;DHT22;11650;48.106;-1.696;2024-03-17T03:36:11;12.80;99.90
22968;DHT22;11650;48.106;-1.696;2024-03-17T03:38:37;12.80;99.90
22968;DHT22;11650;48.106;-1.696;2024-03-17T03:41:23;12.80;99.90
22968;DHT22;11650;48.106;-1.696;2024-03-17T03:43:49;12.70;99.90
22968;DHT22;11650;48.106;-1.696;2024-03-17T03:46:15;12.80;99.90
22968;DHT22;11650;48.106;-1.696;2024-03-17T03:48:40;12.70;99.90
22968;DHT22;11650;48.106;-1.696;2024-03-17T03:51:07;12.70;99.90
22968;DHT22;11650;48.106;-1.696;2024-03-17T03:53:33;12.70;99.90
22968;DHT22;11650;48.106;-1.696;2024-03-17T03:56:00;12.70;99.90
22968;DHT22;11650;48.106;-1.696;2024-03-17T03:58:27;12.70;99.90
22968;DHT22;11650;48.106;-1.696;2024-03-17T04:00:54;12.70;99.90
22968;DHT22;11650;48.106;-1.696;2024-03-17T04:03:20;12.70;99.90
22968;DHT22;11650;48.106;-1.696;2024-03-17T04:05:46;12.80;99.90
22968;DHT22;11650;48.106;-1.696;2024-03-17T04:08:12;12.80;99.90
22968;DHT22;11650;48.106;-1.696;2024-03-17T04:10:37;12.80;99.90
22968;DHT22;11650;48.106;-1.696;2024-03-17T04:13:03;12.80;99.90
22968;DHT22;11650;48.106;-1.696;2024-03-17T04:15:29;12.80;99.90
22968;DHT22;11650;48.106;-1.696;2024-03-17T04:17:54;12.80;99.90
22968;DHT22;11650;48.106;-1.696;2024-03-17T04:20:20;12.80;99.90
22968;DHT22;11650;48.106;-1.696;2024-03-17T04:22:46;12.80;99.90
22968;DHT22;11650;48.106;-1.696;2024-03-17T04:25:14;12.80;99.90
22968;DHT22;11650;48.106;-1.696;2024-03-17T04:27:40;12.80;99.90
22968;DHT22;11650;48.106;-1.696;2024-03-17T04:30:07;12.80;99.90
22968;DHT22;11650;48.106;-1.696;2024-03-17T04:32:33;12.90;99.90
22968;DHT22;11650;48.106;-1.696;2024-03-17T04:34:59;12.80;99.90
22968;DHT22;11650;48.106;-1.696;2024-03-17T04:37:25;12.90;99.90
22968;DHT22;11650;48.106;-1.696;2024-03-17T04:39:51;12.90;99.90
22968;DHT22;11650;48.106;-1.696;2024-03-17T04:42:17;12.90;99.90
22968;DHT22;11650;48.106;-1.696;2024-03-17T04:44:44;12.90;99.90
22968;DHT22;11650;48.106;-1.696;2024-03-17T04:47:10;12.90;99.90
22968;DHT22;11650;48.106;-1.696;2024-03-17T04:49:37;12.90;99.90
22968;DHT22;11650;48.106;-1.696;2024-03-17T04:52:03;12.90;99.90
22968;DHT22;11650;48.106;-1.696;2024-03-17T04:54:30;12.90;99.90
22968;DHT22;11650;48.106;-1.696;2024-03-17T04:56:55;12.90;99.90
22968;DHT22;11650;48.106;-1.696;2024-03-17T04:59:21;12.90;99.90
22968;DHT22;11650;48.106;-1.696;2024-03-17T05:01:47;13.00;99.90
22968;DHT22;11650;48.106;-1.696;2024-03-17T05:04:14;12.90;99.90
22968;DHT22;11650;48.106;-1.696;2024-03-17T05:06:39;13.00;99.90
22968;DHT22;11650;48.106;-1.696;2024-03-17T05:09:07;12.90;99.90
22968;DHT22;11650;48.106;-1.696;2024-03-17T05:11:33;12.90;99.90
22968;DHT22;11650;48.106;-1.696;2024-03-17T05:14:00;12.90;99.90
22968;DHT22;11650;48.106;-1.696;2024-03-17T05:16:26;12.90;99.90
22968;DHT22;11650;48.106;-1.696;2024-03-17T05:18:55;12.90;99.90
22968;DHT22;11650;48.106;-1.696;2024-03-17T05:21:20;12.90;99.90
22968;DHT22;11650;48.106;-1.696;2024-03-17T05:23:47;12.90;99.90
22968;DHT22;11650;48.106;-1.696;2024-03-17T05:26:14;12.80;99.90
22968;DHT22;11650;48.106;-1.696;2024-03-17T05:28:39;12.80;99.90
22968;DHT22;11650;48.106;-1.696;2024-03-17T05:31:05;12.80;99.90
22968;DHT22;11650;48.106;-1.696;2024-03-17T05:33:31;12.80;99.90
22968;DHT22;11650;48.106;-1.696;2024-03-17T05:35:58;12.70;99.90
22968;DHT22;11650;48.106;-1.696;2024-03-17T05:38:26;12.80;99.90
22968;DHT22;11650;48.106;-1.696;2024-03-17T05:41:08;12.80;99.90
22968;DHT22;11650;48.106;-1.696;2024-03-17T05:43:36;12.80;99.90
22968;DHT22;11650;48.106;-1.696;2024-03-17T05:46:03;12.80;99.90
22968;DHT22;11650;48.106;-1.696;2024-03-17T05:48:29;12.80;99.90
22968;DHT22;11650;48.106;-1.696;2024-03-17T05:50:55;12.80;99.90
22968;DHT22;11650;48.106;-1.696;2024-03-17T05:53:22;12.70;99.90
22968;DHT22;11650;48.106;-1.696;2024-03-17T05:55:49;12.70;99.90
22968;DHT22;11650;48.106;-1.696;2024-03-17T05:58:15;12.80;99.90
22968;DHT22;11650;48.106;-1.696;2024-03-17T06:00:41;12.70;99.90
22968;DHT22;11650;48.106;-1.696;2024-03-17T06:03:07;12.80;99.90
22968;DHT22;11650;48.106;-1.696;2024-03-17T06:05:36;12.70;99.90
22968;DHT22;11650;48.106;-1.696;2024-03-17T06:08:04;12.70;99.90
22968;DHT22;11650;48.106;-1.696;2024-03-17T06:10:33;12.80;99.90
22968;DHT22;11650;48.106;-1.696;2024-03-17T06:13:00;12.80;99.90
22968;DHT22;11650;48.106;-1.696;2024-03-17T06:15:26;12.80;99.90
22968;DHT22;11650;48.106;-1.696;2024-03-17T06:17:53;12.80;99.90
22968;DHT22;11650;48.106;-1.696;2024-03-17T06:20:25;12.80;99.90
22968;DHT22;11650;48.106;-1.696;2024-03-17T06:22:54;12.80;99.90
22968;DHT22;11650;48.106;-1.696;2024-03-17T06:25:20;12.80;99.90
22968;DHT22;11650;48.106;-1.696;2024-03-17T06:27:50;12.80;99.90
22968;DHT22;11650;48.106;-1.696;2024-03-17T06:30:16;12.80;99.90
22968;DHT22;11650;48.106;-1.696;2024-03-17T06:32:42;12.80;99.90
22968;DHT22;11650;48.106;-1.696;2024-03-17T06:35:10;12.80;99.90
22968;DHT22;11650;48.106;-1.696;2024-03-17T06:37:36;12.80;99.90
22968;DHT22;11650;48.106;-1.696;2024-03-17T06:40:02;12.80;99.90
22968;DHT22;11650;48.106;-1.696;2024-03-17T06:42:29;12.80;99.90
22968;DHT22;11650;48.106;-1.696;2024-03-17T06:44:55;12.90;99.90
22968;DHT22;11650;48.106;-1.696;2024-03-17T06:47:21;12.90;99.90
22968;DHT22;11650;48.106;-1.696;2024-03-17T06:49:46;12.90;99.90
22968;DHT22;11650;48.106;-1.696;2024-03-17T06:52:12;12.90;99.90
22968;DHT22;11650;48.106;-1.696;2024-03-17T06:54:37;12.90;99.90
22968;DHT22;11650;48.106;-1.696;2024-03-17T06:57:03;12.90;99.90
22968;DHT22;11650;48.106;-1.696;2024-03-17T06:59:32;12.90;99.90
22968;DHT22;11650;48.106;-1.696;2024-03-17T07:01:58;13.00;99.90
22968;DHT22;11650;48.106;-1.696;2024-03-17T07:04:24;12.90;99.90
22968;DHT22;11650;48.106;-1.696;2024-03-17T07:06:49;13.00;99.90
22968;DHT22;11650;48.106;-1.696;2024-03-17T07:09:16;13.00;99.90
22968;DHT22;11650;48.106;-1.696;2024-03-17T07:11:43;13.00;99.90
22968;DHT22;11650;48.106;-1.696;2024-03-17T07:14:09;13.00;99.90
22968;DHT22;11650;48.106;-1.696;2024-03-17T07:16:35;13.10;99.90
22968;DHT22;11650;48.106;-1.696;2024-03-17T07:19:04;13.10;99.90
22968;DHT22;11650;48.106;-1.696;2024-03-17T07:21:30;13.10;99.90
22968;DHT22;11650;48.106;-1.696;2024-03-17T07:23:56;13.10;99.90
22968;DHT22;11650;48.106;-1.696;2024-03-17T07:26:25;13.10;99.90
22968;DHT22;11650;48.106;-1.696;2024-03-17T07:28:50;13.20;99.90
22968;DHT22;11650;48.106;-1.696;2024-03-17T07:31:16;13.20;99.90
22968;DHT22;11650;48.106;-1.696;2024-03-17T07:33:42;13.20;99.90
22968;DHT22;11650;48.106;-1.696;2024-03-17T07:36:08;13.20;99.90
22968;DHT22;11650;48.106;-1.696;2024-03-17T07:38:35;13.20;99.90
22968;DHT22;11650;48.106;-1.696;2024-03-17T07:41:02;13.30;99.90
22968;DHT22;11650;48.106;-1.696;2024-03-17T07:43:30;13.30;99.90
22968;DHT22;11650;48.106;-1.696;2024-03-17T07:46:05;13.30;99.90
22968;DHT22;11650;48.106;-1.696;2024-03-17T07:48:33;13.40;99.90
22968;DHT22;11650;48.106;-1.696;2024-03-17T07:51:03;13.40;99.90
22968;DHT22;11650;48.106;-1.696;2024-03-17T07:53:30;13.40;99.90
22968;DHT22;11650;48.106;-1.696;2024-03-17T07:56:00;13.40;99.90
22968;DHT22;11650;48.106;-1.696;2024-03-17T07:58:27;13.40;99.90
22968;DHT22;11650;48.106;-1.696;2024-03-17T08:00:56;13.50;99.90
22968;DHT22;11650;48.106;-1.696;2024-03-17T08:03:22;13.50;99.90
22968;DHT22;11650;48.106;-1.696;2024-03-17T08:05:49;13.50;99.90
22968;DHT22;11650;48.106;-1.696;2024-03-17T08:08:16;13.60;99.90
22968;DHT22;11650;48.106;-1.696;2024-03-17T08:10:41;13.50;99.90
22968;DHT22;11650;48.106;-1.696;2024-03-17T08:13:07;13.60;99.90
22968;DHT22;11650;48.106;-1.696;2024-03-17T08:15:34;13.60;99.90
22968;DHT22;11650;48.106;-1.696;2024-03-17T08:18:00;13.60;99.90
22968;DHT22;11650;48.106;-1.696;2024-03-17T08:20:26;13.60;99.90
22968;DHT22;11650;48.106;-1.696;2024-03-17T08:22:51;13.60;99.90
22968;DHT22;11650;48.106;-1.696;2024-03-17T08:25:17;13.60;99.90
22968;DHT22;11650;48.106;-1.696;2024-03-17T08:27:43;13.60;99.90
22968;DHT22;11650;48.106;-1.696;2024-03-17T08:30:09;13.60;99.90
22968;DHT22;11650;48.106;-1.696;2024-03-17T08:32:38;13.60;99.90
22968;DHT22;11650;48.106;-1.696;2024-03-17T08:35:05;13.70;99.90
22968;DHT22;11650;48.106;-1.696;2024-03-17T08:37:31;13.60;99.90
22968;DHT22;11650;48.106;-1.696;2024-03-17T08:39:57;13.60;99.90
22968;DHT22;11650;48.106;-1.696;2024-03-17T08:42:23;13.60;99.90
22968;DHT22;11650;48.106;-1.696;2024-03-17T08:44:48;13.60;99.90
22968;DHT22;11650;48.106;-1.696;2024-03-17T08:47:14;13.60;99.90
22968;DHT22;11650;48.106;-1.696;2024-03-17T08:49:40;13.70;99.90
22968;DHT22;11650;48.106;-1.696;2024-03-17T08:52:06;13.70;99.90
22968;DHT22;11650;48.106;-1.696;2024-03-17T08:54:32;13.70;99.90
22968;DHT22;11650;48.106;-1.696;2024-03-17T08:56:58;13.70;99.90
22968;DHT22;11650;48.106;-1.696;2024-03-17T08:59:23;13.70;99.90
22968;DHT22;11650;48.106;-1.696;2024-03-17T09:01:49;13.70;99.90
22968;DHT22;11650;48.106;-1.696;2024-03-17T09:04:14;13.80;99.90
22968;DHT22;11650;48.106;-1.696;2024-03-17T09:06:40;13.80;99.90
22968;DHT22;11650;48.106;-1.696;2024-03-17T09:09:07;13.80;99.90
22968;DHT22;11650;48.106;-1.696;2024-03-17T09:11:33;13.80;99.90
22968;DHT22;11650;48.106;-1.696;2024-03-17T09:13:59;13.90;99.90
22968;DHT22;11650;48.106;-1.696;2024-03-17T09:16:24;13.90;99.90
22968;DHT22;11650;48.106;-1.696;2024-03-17T09:18:51;13.90;99.90
22968;DHT22;11650;48.106;-1.696;2024-03-17T09:21:17;14.00;99.90
22968;DHT22;11650;48.106;-1.696;2024-03-17T09:23:43;14.00;99.90
22968;DHT22;11650;48.106;-1.696;2024-03-17T09:26:10;14.10;99.90
22968;DHT22;11650;48.106;-1.696;2024-03-17T09:28:39;14.10;99.90
22968;DHT22;11650;48.106;-1.696;2024-03-17T09:31:05;14.10;99.90
22968;DHT22;11650;48.106;-1.696;2024-03-17T09:33:33;14.20;99.90
22968;DHT22;11650;48.106;-1.696;2024-03-17T09:36:00;14.10;99.90
22968;DHT22;11650;48.106;-1.696;2024-03-17T09:38:29;14.20;99.90
22968;DHT22;11650;48.106;-1.696;2024-03-17T09:40:55;14.30;99.90
22968;DHT22;11650;48.106;-1.696;2024-03-17T09:43:27;14.30;99.90
22968;DHT22;11650;48.106;-1.696;2024-03-17T09:45:53;14.20;99.90
22968;DHT22;11650;48.106;-1.696;2024-03-17T09:48:21;14.30;99.90
22968;DHT22;11650;48.106;-1.696;2024-03-17T09:50:51;14.40;99.90
22968;DHT22;11650;48.106;-1.696;2024-03-17T09:53:27;14.40;99.90
22968;DHT22;11650;48.106;-1.696;2024-03-17T09:55:58;14.50;99.90
22968;DHT22;11650;48.106;-1.696;2024-03-17T09:58:24;14.60;99.90
22968;DHT22;11650;48.106;-1.696;2024-03-17T10:00:50;14.60;99.90
22968;DHT22;11650;48.106;-1.696;2024-03-17T10:06:05;14.90;99.90
22968;DHT22;11650;48.106;-1.696;2024-03-17T10:08:31;15.00;99.90
22968;DHT22;11650;48.106;-1.696;2024-03-17T10:10:59;15.20;99.90
22968;DHT22;11650;48.106;-1.696;2024-03-17T10:13:25;15.40;99.90
22968;DHT22;11650;48.106;-1.696;2024-03-17T10:15:51;15.40;99.90
22968;DHT22;11650;48.106;-1.696;2024-03-17T10:18:23;15.60;99.90
22968;DHT22;11650;48.106;-1.696;2024-03-17T10:20:49;15.80;99.90
22968;DHT22;11650;48.106;-1.696;2024-03-17T10:23:22;15.70;99.90
22968;DHT22;11650;48.106;-1.696;2024-03-17T10:25:48;15.80;99.90
22968;DHT22;11650;48.106;-1.696;2024-03-17T10:28:15;15.80;99.90
22968;DHT22;11650;48.106;-1.696;2024-03-17T10:30:42;16.20;99.90
22968;DHT22;11650;48.106;-1.696;2024-03-17T10:33:25;16.60;99.90
22968;DHT22;11650;48.106;-1.696;2024-03-17T10:35:58;16.80;99.90
22968;DHT22;11650;48.106;-1.696;2024-03-17T10:38:24;16.80;99.90
22968;DHT22;11650;48.106;-1.696;2024-03-17T10:40:50;17.10;99.90
22968;DHT22;11650;48.106;-1.696;2024-03-17T10:43:16;17.00;99.90
22968;DHT22;11650;48.106;-1.696;2024-03-17T10:45:42;17.30;99.90
22968;DHT22;11650;48.106;-1.696;2024-03-17T10:48:09;17.10;99.90
22968;DHT22;11650;48.106;-1.696;2024-03-17T10:50:39;17.00;99.90
22968;DHT22;11650;48.106;-1.696;2024-03-17T10:53:07;17.20;99.90
22968;DHT22;11650;48.106;-1.696;2024-03-17T10:55:47;17.10;99.90
22968;DHT22;11650;48.106;-1.696;2024-03-17T10:58:35;17.20;99.90
22968;DHT22;11650;48.106;-1.696;2024-03-17T11:01:02;17.30;99.90
22968;DHT22;11650;48.106;-1.696;2024-03-17T11:03:31;17.30;99.90
22968;DHT22;11650;48.106;-1.696;2024-03-17T11:05:57;17.40;99.90
22968;DHT22;11650;48.106;-1.696;2024-03-17T11:08:24;17.30;99.90
22968;DHT22;11650;48.106;-1.696;2024-03-17T11:10:52;17.30;99.90
22968;DHT22;11650;48.106;-1.696;2024-03-17T11:13:27;17.20;99.90
22968;DHT22;11650;48.106;-1.696;2024-03-17T11:15:55;17.30;99.90
22968;DHT22;11650;48.106;-1.696;2024-03-17T11:21:05;17.50;99.90
22968;DHT22;11650;48.106;-1.696;2024-03-17T11:23:38;17.30;99.90
22968;DHT22;11650;48.106;-1.696;2024-03-17T11:26:05;17.20;99.90
22968;DHT22;11650;48.106;-1.696;2024-03-17T11:31:31;17.10;99.90
22968;DHT22;11650;48.106;-1.696;2024-03-17T11:33:58;16.90;99.90
22968;DHT22;11650;48.106;-1.696;2024-03-17T11:41:34;17.00;99.90
22968;DHT22;11650;48.106;-1.696;2024-03-17T11:47:05;16.70;99.90
22968;DHT22;11650;48.106;-1.696;2024-03-17T11:49:39;16.50;99.90
22968;DHT22;11650;48.106;-1.696;2024-03-17T11:52:13;16.40;99.90
22968;DHT22;11650;48.106;-1.696;2024-03-17T11:54:41;16.40;99.90
22968;DHT22;11650;48.106;-1.696;2024-03-17T11:57:20;16.20;99.90
22968;DHT22;11650;48.106;-1.696;2024-03-17T11:59:49;16.20;99.90
22968;DHT22;11650;48.106;-1.696;2024-03-17T12:02:27;16.10;99.90
22968;DHT22;11650;48.106;-1.696;2024-03-17T12:04:54;16.20;99.90
22968;DHT22;11650;48.106;-1.696;2024-03-17T12:07:22;16.20;99.90
22968;DHT22;11650;48.106;-1.696;2024-03-17T12:09:53;16.20;99.90
22968;DHT22;11650;48.106;-1.696;2024-03-17T12:12:26;16.20;99.90
22968;DHT22;11650;48.106;-1.696;2024-03-17T12:15:02;16.00;99.90
22968;DHT22;11650;48.106;-1.696;2024-03-17T12:17:29;15.90;99.90
22968;DHT22;11650;48.106;-1.696;2024-03-17T12:19:54;15.90;99.90
22968;DHT22;11650;48.106;-1.696;2024-03-17T12:22:25;15.90;99.90
22968;DHT22;11650;48.106;-1.696;2024-03-17T12:24:53;16.00;99.90
22968;DHT22;11650;48.106;-1.696;2024-03-17T12:27:21;16.10;99.90
22968;DHT22;11650;48.106;-1.696;2024-03-17T12:29:54;16.20;99.90
22968;DHT22;11650;48.106;-1.696;2024-03-17T12:32:23;16.40;99.90
22968;DHT22;11650;48.106;-1.696;2024-03-17T12:34:55;16.60;99.90
22968;DHT22;11650;48.106;-1.696;2024-03-17T12:37:22;16.60;99.90
22968;DHT22;11650;48.106;-1.696;2024-03-17T12:39:49;16.70;99.90
22968;DHT22;11650;48.106;-1.696;2024-03-17T12:42:16;16.70;99.90
22968;DHT22;11650;48.106;-1.696;2024-03-17T12:44:53;17.00;99.90
22968;DHT22;11650;48.106;-1.696;2024-03-17T12:47:23;17.30;99.90
22968;DHT22;11650;48.106;-1.696;2024-03-17T12:49:50;17.50;99.90
22968;DHT22;11650;48.106;-1.696;2024-03-17T12:52:29;17.60;99.90
22968;DHT22;11650;48.106;-1.696;2024-03-17T12:55:05;17.70;99.90
22968;DHT22;11650;48.106;-1.696;2024-03-17T13:01:04;17.80;99.90
22968;DHT22;11650;48.106;-1.696;2024-03-17T13:03:36;18.00;99.90
22968;DHT22;11650;48.106;-1.696;2024-03-17T13:06:06;19.00;99.90
22968;DHT22;11650;48.106;-1.696;2024-03-17T13:08:35;19.30;99.90
22968;DHT22;11650;48.106;-1.696;2024-03-17T13:11:01;19.20;99.90
22968;DHT22;11650;48.106;-1.696;2024-03-17T13:13:29;19.60;99.90
22968;DHT22;11650;48.106;-1.696;2024-03-17T13:15:55;19.60;99.90
22968;DHT22;11650;48.106;-1.696;2024-03-17T13:18:21;19.60;99.90
22968;DHT22;11650;48.106;-1.696;2024-03-17T13:20:49;19.60;99.90
22968;DHT22;11650;48.106;-1.696;2024-03-17T13:23:15;19.90;99.90
22968;DHT22;11650;48.106;-1.696;2024-03-17T13:25:41;20.30;99.90
22968;DHT22;11650;48.106;-1.696;2024-03-17T13:28:09;21.50;99.90
22968;DHT22;11650;48.106;-1.696;2024-03-17T13:30:35;21.00;99.90
22968;DHT22;11650;48.106;-1.696;2024-03-17T13:33:03;20.20;99.90
22968;DHT22;11650;48.106;-1.696;2024-03-17T13:35:34;19.40;99.90
22968;DHT22;11650;48.106;-1.696;2024-03-17T13:38:00;18.80;99.90
22968;DHT22;11650;48.106;-1.696;2024-03-17T13:40:28;18.30;99.90
22968;DHT22;11650;48.106;-1.696;2024-03-17T13:42:55;17.90;99.90
22968;DHT22;11650;48.106;-1.696;2024-03-17T13:45:23;17.80;99.90
22968;DHT22;11650;48.106;-1.696;2024-03-17T13:47:52;17.80;99.90
22968;DHT22;11650;48.106;-1.696;2024-03-17T13:50:19;17.80;99.90
22968;DHT22;11650;48.106;-1.696;2024-03-17T13:52:45;17.50;99.90
22968;DHT22;11650;48.106;-1.696;2024-03-17T13:55:15;17.40;99.90
22968;DHT22;11650;48.106;-1.696;2024-03-17T13:57:45;17.40;99.90
22968;DHT22;11650;48.106;-1.696;2024-03-17T14:00:13;17.40;99.90
22968;DHT22;11650;48.106;-1.696;2024-03-17T14:02:48;17.30;99.90
22968;DHT22;11650;48.106;-1.696;2024-03-17T14:05:15;17.30;99.90
22968;DHT22;11650;48.106;-1.696;2024-03-17T14:07:42;17.30;99.90
22968;DHT22;11650;48.106;-1.696;2024-03-17T14:10:09;17.60;99.90
22968;DHT22;11650;48.106;-1.696;2024-03-17T14:12:38;17.70;99.90
22968;DHT22;11650;48.106;-1.696;2024-03-17T14:15:05;17.90;99.90
22968;DHT22;11650;48.106;-1.696;2024-03-17T14:17:31;18.50;99.90
22968;DHT22;11650;48.106;-1.696;2024-03-17T14:19:57;18.90;99.90
22968;DHT22;11650;48.106;-1.696;2024-03-17T14:22:22;19.00;99.90
22968;DHT22;11650;48.106;-1.696;2024-03-17T14:24:48;19.00;99.90
22968;DHT22;11650;48.106;-1.696;2024-03-17T14:27:15;18.90;99.90
22968;DHT22;11650;48.106;-1.696;2024-03-17T14:29:41;19.30;99.90
22968;DHT22;11650;48.106;-1.696;2024-03-17T14:32:07;19.10;99.90
22968;DHT22;11650;48.106;-1.696;2024-03-17T14:34:33;18.90;99.90
22968;DHT22;11650;48.106;-1.696;2024-03-17T14:37:02;19.00;99.90
22968;DHT22;11650;48.106;-1.696;2024-03-17T14:39:29;19.00;99.90
22968;DHT22;11650;48.106;-1.696;2024-03-17T14:41:55;18.70;99.90
22968;DHT22;11650;48.106;-1.696;2024-03-17T14:44:21;18.40;99.90
22968;DHT22;11650;48.106;-1.696;2024-03-17T14:46:48;18.10;99.90
22968;DHT22;11650;48.106;-1.696;2024-03-17T14:49:17;17.90;99.90
22968;DHT22;11650;48.106;-1.696;2024-03-17T14:51:42;17.90;99.90
22968;DHT22;11650;48.106;-1.696;2024-03-17T14:54:09;17.70;99.90
22968;DHT22;11650;48.106;-1.696;2024-03-17T14:56:35;17.70;99.90
22968;DHT22;11650;48.106;-1.696;2024-03-17T14:59:01;17.80;99.90
22968;DHT22;11650;48.106;-1.696;2024-03-17T15:01:26;17.90;99.90
22968;DHT22;11650;48.106;-1.696;2024-03-17T15:03:55;17.80;99.90
22968;DHT22;11650;48.106;-1.696;2024-03-17T15:06:21;17.70;99.90
22968;DHT22;11650;48.106;-1.696;2024-03-17T15:08:46;17.70;99.90
22968;DHT22;11650;48.106;-1.696;2024-03-17T15:11:12;17.60;99.90
22968;DHT22;11650;48.106;-1.696;2024-03-17T15:13:38;17.60;99.90
22968;DHT22;11650;48.106;-1.696;2024-03-17T15:16:04;17.40;99.90
22968;DHT22;11650;48.106;-1.696;2024-03-17T15:18:31;17.40;99.90
22968;DHT22;11650;48.106;-1.696;2024-03-17T15:20:56;17.30;99.90
22968;DHT22;11650;48.106;-1.696;2024-03-17T15:23:22;17.20;99.90
22968;DHT22;11650;48.106;-1.696;2024-03-17T15:25:59;17.20;99.90
22968;DHT22;11650;48.106;-1.696;2024-03-17T15:28:25;17.00;99.90
22968;DHT22;11650;48.106;-1.696;2024-03-17T15:30:51;16.90;99.90
22968;DHT22;11650;48.106;-1.696;2024-03-17T15:33:17;17.00;99.90
22968;DHT22;11650;48.106;-1.696;2024-03-17T15:35:42;17.00;99.90
22968;DHT22;11650;48.106;-1.696;2024-03-17T15:38:09;17.00;99.90